sensor_id;sensor_type;location;lat;lon;timestamp;P1;durP1;ratioP1;P2;durP2;ratioP2
7737;SDS011;29398;45.328;5.558;2022-12-18T00:00:39;78.80;;;50.47;;
7737;SDS011;29398;45.328;5.558;2022-12-18T00:01:42;80.78;;;51.63;;
7737;SDS011;29398;45.328;5.558;2022-12-18T00:02:43;81.15;;;50.60;;
7737;SDS011;29398;45.328;5.558;2022-12-18T00:03:45;79.57;;;50.45;;
7737;SDS011;29398;45.328;5.558;2022-12-18T00:04:48;76.75;;;48.85;;
7737;SDS011;29398;45.328;5.558;2022-12-18T00:05:50;77.05;;;47.50;;
7737;SDS011;29398;45.328;5.558;2022-12-18T00:06:52;74.45;;;46.42;;
7737;SDS011;29398;45.328;5.558;2022-12-18T00:07:55;76.70;;;49.08;;
7737;SDS011;29398;45.328;5.558;2022-12-18T00:08:56;71.20;;;46.95;;
7737;SDS011;29398;45.328;5.558;2022-12-18T00:09:58;77.65;;;47.95;;
7737;SDS011;29398;45.328;5.558;2022-12-18T00:11:02;74.93;;;47.20;;
7737;SDS011;29398;45.328;5.558;2022-12-18T00:12:05;74.35;;;46.83;;
7737;SDS011;29398;45.328;5.558;2022-12-18T00:13:06;71.43;;;46.35;;
7737;SDS011;29398;45.328;5.558;2022-12-18T00:14:10;72.15;;;45.70;;
7737;SDS011;29398;45.328;5.558;2022-12-18T00:15:12;73.20;;;44.85;;
7737;SDS011;29398;45.328;5.558;2022-12-18T00:16:15;73.38;;;46.90;;
7737;SDS011;29398;45.328;5.558;2022-12-18T00:17:18;72.47;;;44.83;;
7737;SDS011;29398;45.328;5.558;2022-12-18T00:18:21;70.38;;;45.42;;
7737;SDS011;29398;45.328;5.558;2022-12-18T00:19:22;72.50;;;45.05;;
7737;SDS011;29398;45.328;5.558;2022-12-18T00:20:24;71.82;;;45.92;;
7737;SDS011;29398;45.328;5.558;2022-12-18T00:21:26;70.00;;;43.38;;
7737;SDS011;29398;45.328;5.558;2022-12-18T00:22:28;73.60;;;45.63;;
7737;SDS011;29398;45.328;5.558;2022-12-18T00:23:30;77.00;;;46.88;;
7737;SDS011;29398;45.328;5.558;2022-12-18T00:24:32;70.10;;;44.58;;
7737;SDS011;29398;45.328;5.558;2022-12-18T00:25:34;70.20;;;44.05;;
7737;SDS011;29398;45.328;5.558;2022-12-18T00:26:37;72.97;;;45.63;;
7737;SDS011;29398;45.328;5.558;2022-12-18T00:27:39;69.03;;;43.30;;
7737;SDS011;29398;45.328;5.558;2022-12-18T00:28:41;65.60;;;41.38;;
7737;SDS011;29398;45.328;5.558;2022-12-18T00:29:44;72.68;;;46.15;;
7737;SDS011;29398;45.328;5.558;2022-12-18T00:30:46;75.15;;;46.33;;
7737;SDS011;29398;45.328;5.558;2022-12-18T00:31:51;69.90;;;44.40;;
7737;SDS011;29398;45.328;5.558;2022-12-18T00:32:53;72.70;;;45.03;;
7737;SDS011;29398;45.328;5.558;2022-12-18T00:33:55;77.57;;;48.17;;
7737;SDS011;29398;45.328;5.558;2022-12-18T00:34:57;73.85;;;45.33;;
7737;SDS011;29398;45.328;5.558;2022-12-18T00:36:00;71.55;;;45.30;;
7737;SDS011;29398;45.328;5.558;2022-12-18T00:37:02;69.93;;;44.60;;
7737;SDS011;29398;45.328;5.558;2022-12-18T00:38:03;71.25;;;45.15;;
7737;SDS011;29398;45.328;5.558;2022-12-18T00:39:06;76.90;;;48.40;;
7737;SDS011;29398;45.328;5.558;2022-12-18T00:40:08;70.63;;;45.30;;
7737;SDS011;29398;45.328;5.558;2022-12-18T00:41:11;65.97;;;43.55;;
7737;SDS011;29398;45.328;5.558;2022-12-18T00:42:13;64.78;;;42.63;;
7737;SDS011;29398;45.328;5.558;2022-12-18T00:43:33;68.53;;;44.75;;
7737;SDS011;29398;45.328;5.558;2022-12-18T00:44:34;73.57;;;46.47;;
7737;SDS011;29398;45.328;5.558;2022-12-18T00:45:37;73.82;;;46.80;;
7737;SDS011;29398;45.328;5.558;2022-12-18T00:46:38;71.43;;;45.75;;
7737;SDS011;29398;45.328;5.558;2022-12-18T00:47:41;70.40;;;45.38;;
7737;SDS011;29398;45.328;5.558;2022-12-18T00:48:42;72.13;;;45.15;;
7737;SDS011;29398;45.328;5.558;2022-12-18T00:49:44;76.75;;;47.40;;
7737;SDS011;29398;45.328;5.558;2022-12-18T00:50:47;73.20;;;46.90;;
7737;SDS011;29398;45.328;5.558;2022-12-18T00:51:49;82.63;;;50.25;;
7737;SDS011;29398;45.328;5.558;2022-12-18T00:52:50;81.68;;;48.15;;
7737;SDS011;29398;45.328;5.558;2022-12-18T00:53:53;76.85;;;47.95;;
7737;SDS011;29398;45.328;5.558;2022-12-18T00:54:54;76.10;;;47.13;;
7737;SDS011;29398;45.328;5.558;2022-12-18T00:55:56;80.45;;;49.63;;
7737;SDS011;29398;45.328;5.558;2022-12-18T00:56:57;78.38;;;48.60;;
7737;SDS011;29398;45.328;5.558;2022-12-18T00:58:00;86.10;;;52.88;;
7737;SDS011;29398;45.328;5.558;2022-12-18T00:59:02;79.57;;;49.05;;
7737;SDS011;29398;45.328;5.558;2022-12-18T01:00:06;87.93;;;49.83;;
7737;SDS011;29398;45.328;5.558;2022-12-18T01:01:10;81.72;;;50.95;;
7737;SDS011;29398;45.328;5.558;2022-12-18T01:02:12;78.80;;;46.03;;
7737;SDS011;29398;45.328;5.558;2022-12-18T01:03:13;84.60;;;52.03;;
7737;SDS011;29398;45.328;5.558;2022-12-18T01:04:17;77.28;;;47.30;;
7737;SDS011;29398;45.328;5.558;2022-12-18T01:05:19;82.13;;;49.53;;
7737;SDS011;29398;45.328;5.558;2022-12-18T01:06:21;80.88;;;48.95;;
7737;SDS011;29398;45.328;5.558;2022-12-18T01:07:22;78.15;;;48.88;;
7737;SDS011;29398;45.328;5.558;2022-12-18T01:08:24;79.90;;;47.97;;
7737;SDS011;29398;45.328;5.558;2022-12-18T01:09:25;76.72;;;46.55;;
7737;SDS011;29398;45.328;5.558;2022-12-18T01:10:28;74.07;;;46.20;;
7737;SDS011;29398;45.328;5.558;2022-12-18T01:11:31;75.55;;;47.92;;
7737;SDS011;29398;45.328;5.558;2022-12-18T01:12:33;74.50;;;46.67;;
7737;SDS011;29398;45.328;5.558;2022-12-18T01:13:34;75.22;;;47.22;;
7737;SDS011;29398;45.328;5.558;2022-12-18T01:14:37;77.13;;;45.70;;
7737;SDS011;29398;45.328;5.558;2022-12-18T01:15:38;77.63;;;48.70;;
7737;SDS011;29398;45.328;5.558;2022-12-18T01:16:41;64.50;;;42.47;;
7737;SDS011;29398;45.328;5.558;2022-12-18T01:17:43;67.00;;;43.63;;
7737;SDS011;29398;45.328;5.558;2022-12-18T01:18:45;69.80;;;44.92;;
7737;SDS011;29398;45.328;5.558;2022-12-18T01:19:46;71.13;;;46.67;;
7737;SDS011;29398;45.328;5.558;2022-12-18T01:20:49;72.10;;;45.13;;
7737;SDS011;29398;45.328;5.558;2022-12-18T01:21:50;71.63;;;46.13;;
7737;SDS011;29398;45.328;5.558;2022-12-18T01:22:52;70.05;;;45.92;;
7737;SDS011;29398;45.328;5.558;2022-12-18T01:23:53;62.83;;;41.85;;
7737;SDS011;29398;45.328;5.558;2022-12-18T01:24:57;66.22;;;43.60;;
7737;SDS011;29398;45.328;5.558;2022-12-18T01:26:03;68.47;;;44.22;;
7737;SDS011;29398;45.328;5.558;2022-12-18T01:27:08;68.95;;;44.80;;
7737;SDS011;29398;45.328;5.558;2022-12-18T01:28:09;66.15;;;43.10;;
7737;SDS011;29398;45.328;5.558;2022-12-18T01:29:11;72.15;;;45.70;;
7737;SDS011;29398;45.328;5.558;2022-12-18T01:30:12;69.00;;;45.58;;
7737;SDS011;29398;45.328;5.558;2022-12-18T01:31:16;68.88;;;42.75;;
7737;SDS011;29398;45.328;5.558;2022-12-18T01:32:20;67.65;;;44.50;;
7737;SDS011;29398;45.328;5.558;2022-12-18T01:33:23;70.93;;;44.35;;
7737;SDS011;29398;45.328;5.558;2022-12-18T01:34:24;69.45;;;43.28;;
7737;SDS011;29398;45.328;5.558;2022-12-18T01:35:26;66.35;;;42.95;;
7737;SDS011;29398;45.328;5.558;2022-12-18T01:36:28;63.45;;;41.47;;
7737;SDS011;29398;45.328;5.558;2022-12-18T01:37:32;59.08;;;38.90;;
7737;SDS011;29398;45.328;5.558;2022-12-18T01:38:33;65.25;;;42.88;;
7737;SDS011;29398;45.328;5.558;2022-12-18T01:39:35;81.28;;;50.30;;
7737;SDS011;29398;45.328;5.558;2022-12-18T01:40:37;73.13;;;45.92;;
7737;SDS011;29398;45.328;5.558;2022-12-18T01:41:39;68.40;;;44.58;;
7737;SDS011;29398;45.328;5.558;2022-12-18T01:42:58;66.40;;;43.42;;
7737;SDS011;29398;45.328;5.558;2022-12-18T01:44:01;74.68;;;46.85;;
7737;SDS011;29398;45.328;5.558;2022-12-18T01:45:25;68.13;;;45.85;;
7737;SDS011;29398;45.328;5.558;2022-12-18T01:46:28;68.43;;;44.50;;
7737;SDS011;29398;45.328;5.558;2022-12-18T01:47:33;72.68;;;47.00;;
7737;SDS011;29398;45.328;5.558;2022-12-18T01:48:39;71.50;;;44.33;;
7737;SDS011;29398;45.328;5.558;2022-12-18T01:49:41;73.60;;;46.95;;
7737;SDS011;29398;45.328;5.558;2022-12-18T01:50:43;74.35;;;46.20;;
7737;SDS011;29398;45.328;5.558;2022-12-18T01:51:44;68.63;;;45.05;;
7737;SDS011;29398;45.328;5.558;2022-12-18T01:52:49;80.25;;;49.53;;
7737;SDS011;29398;45.328;5.558;2022-12-18T01:53:51;101.15;;;60.65;;
7737;SDS011;29398;45.328;5.558;2022-12-18T01:54:54;107.57;;;64.22;;
7737;SDS011;29398;45.328;5.558;2022-12-18T01:55:56;128.38;;;77.97;;
7737;SDS011;29398;45.328;5.558;2022-12-18T01:56:58;130.50;;;77.88;;
7737;SDS011;29398;45.328;5.558;2022-12-18T01:58:01;124.53;;;74.47;;
7737;SDS011;29398;45.328;5.558;2022-12-18T01:59:03;110.80;;;68.03;;
7737;SDS011;29398;45.328;5.558;2022-12-18T02:00:10;112.50;;;67.40;;
7737;SDS011;29398;45.328;5.558;2022-12-18T02:01:13;112.50;;;66.82;;
7737;SDS011;29398;45.328;5.558;2022-12-18T02:02:16;108.15;;;65.60;;
7737;SDS011;29398;45.328;5.558;2022-12-18T02:03:19;107.63;;;63.88;;
7737;SDS011;29398;45.328;5.558;2022-12-18T02:04:21;111.80;;;65.30;;
7737;SDS011;29398;45.328;5.558;2022-12-18T02:05:27;101.72;;;61.05;;
7737;SDS011;29398;45.328;5.558;2022-12-18T02:06:37;105.57;;;62.78;;
7737;SDS011;29398;45.328;5.558;2022-12-18T02:07:43;111.90;;;66.57;;
7737;SDS011;29398;45.328;5.558;2022-12-18T02:08:57;123.20;;;71.07;;
7737;SDS011;29398;45.328;5.558;2022-12-18T02:10:07;125.05;;;73.22;;
7737;SDS011;29398;45.328;5.558;2022-12-18T02:11:18;122.25;;;75.30;;
7737;SDS011;29398;45.328;5.558;2022-12-18T02:12:27;120.45;;;70.80;;
7737;SDS011;29398;45.328;5.558;2022-12-18T02:13:37;144.45;;;80.78;;
7737;SDS011;29398;45.328;5.558;2022-12-18T02:14:47;130.00;;;77.38;;
7737;SDS011;29398;45.328;5.558;2022-12-18T02:15:57;138.07;;;81.18;;
7737;SDS011;29398;45.328;5.558;2022-12-18T02:17:04;125.25;;;72.72;;
7737;SDS011;29398;45.328;5.558;2022-12-18T02:18:13;116.47;;;68.38;;
7737;SDS011;29398;45.328;5.558;2022-12-18T02:19:26;108.75;;;64.25;;
7737;SDS011;29398;45.328;5.558;2022-12-18T02:20:42;104.30;;;60.90;;
7737;SDS011;29398;45.328;5.558;2022-12-18T02:21:48;106.47;;;63.75;;
7737;SDS011;29398;45.328;5.558;2022-12-18T02:23:01;102.80;;;61.95;;
7737;SDS011;29398;45.328;5.558;2022-12-18T02:24:17;96.63;;;59.40;;
7737;SDS011;29398;45.328;5.558;2022-12-18T02:27:13;94.07;;;55.90;;
7737;SDS011;29398;45.328;5.558;2022-12-18T02:28:15;94.70;;;57.22;;
7737;SDS011;29398;45.328;5.558;2022-12-18T02:29:21;85.07;;;52.08;;
7737;SDS011;29398;45.328;5.558;2022-12-18T02:30:28;80.38;;;48.72;;
7737;SDS011;29398;45.328;5.558;2022-12-18T02:31:35;79.65;;;50.00;;
7737;SDS011;29398;45.328;5.558;2022-12-18T02:32:40;74.82;;;48.55;;
7737;SDS011;29398;45.328;5.558;2022-12-18T02:33:48;73.13;;;46.70;;
7737;SDS011;29398;45.328;5.558;2022-12-18T02:34:52;73.88;;;48.22;;
7737;SDS011;29398;45.328;5.558;2022-12-18T02:36:00;69.07;;;45.47;;
7737;SDS011;29398;45.328;5.558;2022-12-18T02:37:05;70.68;;;45.08;;
7737;SDS011;29398;45.328;5.558;2022-12-18T02:38:12;65.65;;;42.70;;
7737;SDS011;29398;45.328;5.558;2022-12-18T02:39:17;65.05;;;41.80;;
7737;SDS011;29398;45.328;5.558;2022-12-18T02:40:30;62.70;;;41.05;;
7737;SDS011;29398;45.328;5.558;2022-12-18T02:41:35;63.17;;;41.08;;
7737;SDS011;29398;45.328;5.558;2022-12-18T02:42:39;66.47;;;40.88;;
7737;SDS011;29398;45.328;5.558;2022-12-18T02:43:45;64.00;;;41.85;;
7737;SDS011;29398;45.328;5.558;2022-12-18T02:44:50;68.40;;;43.70;;
7737;SDS011;29398;45.328;5.558;2022-12-18T02:45:57;67.85;;;43.83;;
7737;SDS011;29398;45.328;5.558;2022-12-18T02:47:04;75.68;;;46.72;;
7737;SDS011;29398;45.328;5.558;2022-12-18T02:48:05;67.03;;;42.72;;
7737;SDS011;29398;45.328;5.558;2022-12-18T02:49:11;64.63;;;44.28;;
7737;SDS011;29398;45.328;5.558;2022-12-18T02:50:25;65.97;;;43.47;;
7737;SDS011;29398;45.328;5.558;2022-12-18T02:51:33;70.90;;;43.35;;
7737;SDS011;29398;45.328;5.558;2022-12-18T02:52:42;70.20;;;45.33;;
7737;SDS011;29398;45.328;5.558;2022-12-18T02:53:51;66.10;;;43.47;;
7737;SDS011;29398;45.328;5.558;2022-12-18T02:54:57;65.00;;;43.00;;
7737;SDS011;29398;45.328;5.558;2022-12-18T02:56:09;69.32;;;42.65;;
7737;SDS011;29398;45.328;5.558;2022-12-18T02:57:16;68.03;;;43.47;;
7737;SDS011;29398;45.328;5.558;2022-12-18T02:58:26;69.93;;;42.42;;
7737;SDS011;29398;45.328;5.558;2022-12-18T02:59:39;64.82;;;43.10;;
7737;SDS011;29398;45.328;5.558;2022-12-18T03:00:48;63.85;;;41.55;;
7737;SDS011;29398;45.328;5.558;2022-12-18T03:01:55;63.40;;;41.58;;
7737;SDS011;29398;45.328;5.558;2022-12-18T03:03:03;63.33;;;39.38;;
7737;SDS011;29398;45.328;5.558;2022-12-18T03:04:11;67.63;;;42.42;;
7737;SDS011;29398;45.328;5.558;2022-12-18T03:05:19;66.30;;;42.63;;
7737;SDS011;29398;45.328;5.558;2022-12-18T03:06:23;62.33;;;40.35;;
7737;SDS011;29398;45.328;5.558;2022-12-18T03:07:33;66.50;;;41.15;;
7737;SDS011;29398;45.328;5.558;2022-12-18T03:08:42;64.13;;;41.72;;
7737;SDS011;29398;45.328;5.558;2022-12-18T03:09:50;65.28;;;41.72;;
7737;SDS011;29398;45.328;5.558;2022-12-18T03:10:55;62.10;;;41.00;;
7737;SDS011;29398;45.328;5.558;2022-12-18T03:12:03;59.92;;;38.88;;
7737;SDS011;29398;45.328;5.558;2022-12-18T03:14:29;67.50;;;42.45;;
7737;SDS011;29398;45.328;5.558;2022-12-18T03:15:34;69.28;;;43.40;;
7737;SDS011;29398;45.328;5.558;2022-12-18T03:16:43;64.78;;;41.50;;
7737;SDS011;29398;45.328;5.558;2022-12-18T03:17:46;62.33;;;40.47;;
7737;SDS011;29398;45.328;5.558;2022-12-18T03:18:52;61.83;;;39.72;;
7737;SDS011;29398;45.328;5.558;2022-12-18T03:19:59;61.53;;;41.20;;
7737;SDS011;29398;45.328;5.558;2022-12-18T03:21:06;66.97;;;44.15;;
7737;SDS011;29398;45.328;5.558;2022-12-18T03:22:11;62.47;;;41.92;;
7737;SDS011;29398;45.328;5.558;2022-12-18T03:23:20;68.53;;;44.45;;
7737;SDS011;29398;45.328;5.558;2022-12-18T03:24:25;67.03;;;44.42;;
7737;SDS011;29398;45.328;5.558;2022-12-18T03:25:34;67.60;;;45.00;;
7737;SDS011;29398;45.328;5.558;2022-12-18T03:26:38;67.85;;;42.88;;
7737;SDS011;29398;45.328;5.558;2022-12-18T03:27:47;74.47;;;47.67;;
7737;SDS011;29398;45.328;5.558;2022-12-18T03:28:52;69.00;;;44.40;;
7737;SDS011;29398;45.328;5.558;2022-12-18T03:30:00;66.60;;;43.67;;
7737;SDS011;29398;45.328;5.558;2022-12-18T03:31:09;71.15;;;44.97;;
7737;SDS011;29398;45.328;5.558;2022-12-18T03:32:15;70.18;;;46.67;;
7737;SDS011;29398;45.328;5.558;2022-12-18T03:33:23;74.97;;;48.47;;
7737;SDS011;29398;45.328;5.558;2022-12-18T03:34:32;73.88;;;48.15;;
7737;SDS011;29398;45.328;5.558;2022-12-18T03:35:41;66.95;;;44.65;;
7737;SDS011;29398;45.328;5.558;2022-12-18T03:36:45;73.22;;;47.70;;
7737;SDS011;29398;45.328;5.558;2022-12-18T03:37:48;67.82;;;44.72;;
7737;SDS011;29398;45.328;5.558;2022-12-18T03:38:50;69.60;;;45.47;;
7737;SDS011;29398;45.328;5.558;2022-12-18T03:39:52;65.43;;;43.30;;
7737;SDS011;29398;45.328;5.558;2022-12-18T03:40:57;68.75;;;44.10;;
7737;SDS011;29398;45.328;5.558;2022-12-18T03:42:10;64.63;;;43.60;;
7737;SDS011;29398;45.328;5.558;2022-12-18T03:43:25;65.57;;;44.65;;
7737;SDS011;29398;45.328;5.558;2022-12-18T03:44:39;69.63;;;44.67;;
7737;SDS011;29398;45.328;5.558;2022-12-18T03:45:47;69.78;;;45.65;;
7737;SDS011;29398;45.328;5.558;2022-12-18T03:46:54;67.32;;;44.50;;
7737;SDS011;29398;45.328;5.558;2022-12-18T03:48:03;67.88;;;45.03;;
7737;SDS011;29398;45.328;5.558;2022-12-18T03:49:17;67.47;;;43.97;;
7737;SDS011;29398;45.328;5.558;2022-12-18T03:50:31;66.00;;;42.03;;
7737;SDS011;29398;45.328;5.558;2022-12-18T03:51:40;66.50;;;43.13;;
7737;SDS011;29398;45.328;5.558;2022-12-18T03:52:49;65.15;;;43.00;;
7737;SDS011;29398;45.328;5.558;2022-12-18T03:53:57;64.22;;;41.58;;
7737;SDS011;29398;45.328;5.558;2022-12-18T03:55:09;63.03;;;41.22;;
7737;SDS011;29398;45.328;5.558;2022-12-18T03:56:11;61.33;;;39.97;;
7737;SDS011;29398;45.328;5.558;2022-12-18T03:57:18;60.20;;;38.67;;
7737;SDS011;29398;45.328;5.558;2022-12-18T03:58:25;66.32;;;43.00;;
7737;SDS011;29398;45.328;5.558;2022-12-18T03:59:48;65.43;;;42.30;;
7737;SDS011;29398;45.328;5.558;2022-12-18T04:00:56;66.30;;;42.05;;
7737;SDS011;29398;45.328;5.558;2022-12-18T04:02:00;64.55;;;42.63;;
7737;SDS011;29398;45.328;5.558;2022-12-18T04:03:04;62.60;;;41.13;;
7737;SDS011;29398;45.328;5.558;2022-12-18T04:04:14;46.88;;;31.23;;
7737;SDS011;29398;45.328;5.558;2022-12-18T04:05:20;67.75;;;43.15;;
7737;SDS011;29398;45.328;5.558;2022-12-18T04:06:24;67.72;;;43.08;;
7737;SDS011;29398;45.328;5.558;2022-12-18T04:07:26;62.38;;;41.40;;
7737;SDS011;29398;45.328;5.558;2022-12-18T04:08:32;66.82;;;43.63;;
7737;SDS011;29398;45.328;5.558;2022-12-18T04:09:39;67.57;;;43.60;;
7737;SDS011;29398;45.328;5.558;2022-12-18T04:10:43;65.70;;;42.97;;
7737;SDS011;29398;45.328;5.558;2022-12-18T04:11:44;67.00;;;43.35;;
7737;SDS011;29398;45.328;5.558;2022-12-18T04:12:48;62.38;;;41.55;;
7737;SDS011;29398;45.328;5.558;2022-12-18T04:13:53;63.53;;;41.85;;
7737;SDS011;29398;45.328;5.558;2022-12-18T04:14:59;66.47;;;43.60;;
7737;SDS011;29398;45.328;5.558;2022-12-18T04:16:00;61.65;;;41.10;;
7737;SDS011;29398;45.328;5.558;2022-12-18T04:17:03;59.00;;;40.75;;
7737;SDS011;29398;45.328;5.558;2022-12-18T04:18:07;61.90;;;40.90;;
7737;SDS011;29398;45.328;5.558;2022-12-18T04:19:13;70.57;;;46.20;;
7737;SDS011;29398;45.328;5.558;2022-12-18T04:20:17;63.53;;;42.10;;
7737;SDS011;29398;45.328;5.558;2022-12-18T04:21:20;61.67;;;42.65;;
7737;SDS011;29398;45.328;5.558;2022-12-18T04:22:22;62.95;;;41.35;;
7737;SDS011;29398;45.328;5.558;2022-12-18T04:23:30;61.20;;;40.50;;
7737;SDS011;29398;45.328;5.558;2022-12-18T04:24:33;61.90;;;41.40;;
7737;SDS011;29398;45.328;5.558;2022-12-18T04:25:45;62.83;;;41.45;;
7737;SDS011;29398;45.328;5.558;2022-12-18T04:26:52;62.75;;;43.28;;
7737;SDS011;29398;45.328;5.558;2022-12-18T04:28:00;62.75;;;40.42;;
7737;SDS011;29398;45.328;5.558;2022-12-18T04:29:01;67.22;;;43.78;;
7737;SDS011;29398;45.328;5.558;2022-12-18T04:30:06;63.78;;;41.38;;
7737;SDS011;29398;45.328;5.558;2022-12-18T04:31:10;64.70;;;41.45;;
7737;SDS011;29398;45.328;5.558;2022-12-18T04:32:13;61.78;;;41.00;;
7737;SDS011;29398;45.328;5.558;2022-12-18T04:33:17;59.30;;;39.55;;
7737;SDS011;29398;45.328;5.558;2022-12-18T04:34:20;54.35;;;36.80;;
7737;SDS011;29398;45.328;5.558;2022-12-18T04:35:24;60.90;;;40.60;;
7737;SDS011;29398;45.328;5.558;2022-12-18T04:36:26;63.47;;;41.55;;
7737;SDS011;29398;45.328;5.558;2022-12-18T04:37:28;59.72;;;39.17;;
7737;SDS011;29398;45.328;5.558;2022-12-18T04:38:30;60.90;;;40.85;;
7737;SDS011;29398;45.328;5.558;2022-12-18T04:39:39;61.63;;;39.97;;
7737;SDS011;29398;45.328;5.558;2022-12-18T04:40:47;60.80;;;39.88;;
7737;SDS011;29398;45.328;5.558;2022-12-18T04:41:56;64.53;;;42.00;;
7737;SDS011;29398;45.328;5.558;2022-12-18T04:42:57;59.35;;;39.35;;
7737;SDS011;29398;45.328;5.558;2022-12-18T04:43:59;57.83;;;39.10;;
7737;SDS011;29398;45.328;5.558;2022-12-18T04:45:00;57.38;;;39.83;;
7737;SDS011;29398;45.328;5.558;2022-12-18T04:46:05;60.22;;;40.20;;
7737;SDS011;29398;45.328;5.558;2022-12-18T04:47:07;59.30;;;39.35;;
7737;SDS011;29398;45.328;5.558;2022-12-18T04:48:09;64.28;;;42.97;;
7737;SDS011;29398;45.328;5.558;2022-12-18T04:49:10;58.60;;;39.00;;
7737;SDS011;29398;45.328;5.558;2022-12-18T04:50:12;59.58;;;39.88;;
7737;SDS011;29398;45.328;5.558;2022-12-18T04:51:14;58.95;;;40.03;;
7737;SDS011;29398;45.328;5.558;2022-12-18T04:52:16;60.67;;;39.88;;
7737;SDS011;29398;45.328;5.558;2022-12-18T04:53:17;68.30;;;43.95;;
7737;SDS011;29398;45.328;5.558;2022-12-18T04:54:19;67.93;;;44.70;;
7737;SDS011;29398;45.328;5.558;2022-12-18T04:55:20;63.47;;;40.47;;
7737;SDS011;29398;45.328;5.558;2022-12-18T04:56:23;69.72;;;47.38;;
7737;SDS011;29398;45.328;5.558;2022-12-18T04:57:24;71.20;;;47.63;;
7737;SDS011;29398;45.328;5.558;2022-12-18T04:58:26;67.13;;;45.33;;
7737;SDS011;29398;45.328;5.558;2022-12-18T04:59:27;72.57;;;47.38;;
7737;SDS011;29398;45.328;5.558;2022-12-18T05:00:29;72.55;;;48.05;;
7737;SDS011;29398;45.328;5.558;2022-12-18T05:01:35;70.32;;;48.53;;
7737;SDS011;29398;45.328;5.558;2022-12-18T05:02:37;65.80;;;44.90;;
7737;SDS011;29398;45.328;5.558;2022-12-18T05:03:38;68.35;;;44.15;;
7737;SDS011;29398;45.328;5.558;2022-12-18T05:04:40;73.63;;;47.50;;
7737;SDS011;29398;45.328;5.558;2022-12-18T05:05:41;66.80;;;43.80;;
7737;SDS011;29398;45.328;5.558;2022-12-18T05:06:43;71.50;;;45.60;;
7737;SDS011;29398;45.328;5.558;2022-12-18T05:07:44;62.60;;;41.95;;
7737;SDS011;29398;45.328;5.558;2022-12-18T05:08:46;63.80;;;42.97;;
7737;SDS011;29398;45.328;5.558;2022-12-18T05:09:47;69.07;;;46.00;;
7737;SDS011;29398;45.328;5.558;2022-12-18T05:10:57;69.20;;;44.70;;
7737;SDS011;29398;45.328;5.558;2022-12-18T05:11:59;64.05;;;42.25;;
7737;SDS011;29398;45.328;5.558;2022-12-18T05:13:01;60.10;;;39.63;;
7737;SDS011;29398;45.328;5.558;2022-12-18T05:14:02;59.70;;;37.97;;
7737;SDS011;29398;45.328;5.558;2022-12-18T05:15:04;58.10;;;37.15;;
7737;SDS011;29398;45.328;5.558;2022-12-18T05:16:07;54.05;;;35.63;;
7737;SDS011;29398;45.328;5.558;2022-12-18T05:17:11;59.85;;;36.83;;
7737;SDS011;29398;45.328;5.558;2022-12-18T05:18:12;55.13;;;36.42;;
7737;SDS011;29398;45.328;5.558;2022-12-18T05:19:14;57.88;;;39.25;;
7737;SDS011;29398;45.328;5.558;2022-12-18T05:20:15;50.08;;;36.45;;
7737;SDS011;29398;45.328;5.558;2022-12-18T05:21:16;52.78;;;34.95;;
7737;SDS011;29398;45.328;5.558;2022-12-18T05:22:18;50.30;;;34.60;;
7737;SDS011;29398;45.328;5.558;2022-12-18T05:23:20;58.15;;;38.20;;
7737;SDS011;29398;45.328;5.558;2022-12-18T05:24:23;52.63;;;35.38;;
7737;SDS011;29398;45.328;5.558;2022-12-18T05:25:24;56.40;;;37.95;;
7737;SDS011;29398;45.328;5.558;2022-12-18T05:26:27;54.15;;;37.58;;
7737;SDS011;29398;45.328;5.558;2022-12-18T05:27:28;61.35;;;41.42;;
7737;SDS011;29398;45.328;5.558;2022-12-18T05:28:30;56.65;;;39.13;;
7737;SDS011;29398;45.328;5.558;2022-12-18T05:29:33;60.40;;;41.08;;
7737;SDS011;29398;45.328;5.558;2022-12-18T05:30:35;62.00;;;41.13;;
7737;SDS011;29398;45.328;5.558;2022-12-18T05:31:36;61.13;;;41.00;;
7737;SDS011;29398;45.328;5.558;2022-12-18T05:32:40;59.47;;;39.53;;
7737;SDS011;29398;45.328;5.558;2022-12-18T05:33:42;58.97;;;39.47;;
7737;SDS011;29398;45.328;5.558;2022-12-18T05:34:44;61.13;;;40.47;;
7737;SDS011;29398;45.328;5.558;2022-12-18T05:35:49;60.17;;;40.45;;
7737;SDS011;29398;45.328;5.558;2022-12-18T05:36:52;58.00;;;40.25;;
7737;SDS011;29398;45.328;5.558;2022-12-18T05:37:55;59.47;;;39.92;;
7737;SDS011;29398;45.328;5.558;2022-12-18T05:38:56;56.20;;;39.20;;
7737;SDS011;29398;45.328;5.558;2022-12-18T05:39:58;53.63;;;37.20;;
7737;SDS011;29398;45.328;5.558;2022-12-18T05:40:59;57.17;;;37.33;;
7737;SDS011;29398;45.328;5.558;2022-12-18T05:42:01;57.13;;;39.22;;
7737;SDS011;29398;45.328;5.558;2022-12-18T05:43:02;57.15;;;39.20;;
7737;SDS011;29398;45.328;5.558;2022-12-18T05:44:04;58.75;;;39.80;;
7737;SDS011;29398;45.328;5.558;2022-12-18T05:45:05;61.72;;;41.95;;
7737;SDS011;29398;45.328;5.558;2022-12-18T05:46:09;56.78;;;39.17;;
7737;SDS011;29398;45.328;5.558;2022-12-18T05:47:13;61.47;;;40.47;;
7737;SDS011;29398;45.328;5.558;2022-12-18T05:48:16;58.80;;;39.40;;
7737;SDS011;29398;45.328;5.558;2022-12-18T05:49:17;54.38;;;37.45;;
7737;SDS011;29398;45.328;5.558;2022-12-18T05:50:20;64.22;;;43.22;;
7737;SDS011;29398;45.328;5.558;2022-12-18T05:51:21;61.78;;;41.40;;
7737;SDS011;29398;45.328;5.558;2022-12-18T05:52:23;59.10;;;39.50;;
7737;SDS011;29398;45.328;5.558;2022-12-18T05:53:24;61.67;;;42.25;;
7737;SDS011;29398;45.328;5.558;2022-12-18T05:54:27;55.83;;;39.83;;
7737;SDS011;29398;45.328;5.558;2022-12-18T05:55:28;59.15;;;41.20;;
7737;SDS011;29398;45.328;5.558;2022-12-18T05:56:30;63.10;;;42.50;;
7737;SDS011;29398;45.328;5.558;2022-12-18T05:57:31;59.55;;;40.70;;
7737;SDS011;29398;45.328;5.558;2022-12-18T05:58:33;60.47;;;40.13;;
7737;SDS011;29398;45.328;5.558;2022-12-18T05:59:34;58.70;;;39.38;;
7737;SDS011;29398;45.328;5.558;2022-12-18T06:00:37;62.97;;;40.22;;
7737;SDS011;29398;45.328;5.558;2022-12-18T06:01:42;61.10;;;41.55;;
7737;SDS011;29398;45.328;5.558;2022-12-18T06:02:46;62.13;;;41.00;;
7737;SDS011;29398;45.328;5.558;2022-12-18T06:03:48;64.60;;;42.33;;
7737;SDS011;29398;45.328;5.558;2022-12-18T06:04:50;63.13;;;40.88;;
7737;SDS011;29398;45.328;5.558;2022-12-18T06:05:51;62.63;;;41.63;;
7737;SDS011;29398;45.328;5.558;2022-12-18T06:06:53;63.65;;;42.80;;
7737;SDS011;29398;45.328;5.558;2022-12-18T06:07:54;60.92;;;40.63;;
7737;SDS011;29398;45.328;5.558;2022-12-18T06:08:57;65.10;;;42.63;;
7737;SDS011;29398;45.328;5.558;2022-12-18T06:09:58;60.40;;;41.45;;
7737;SDS011;29398;45.328;5.558;2022-12-18T06:11:00;63.50;;;43.17;;
7737;SDS011;29398;45.328;5.558;2022-12-18T06:12:01;67.63;;;42.65;;
7737;SDS011;29398;45.328;5.558;2022-12-18T06:13:05;69.22;;;43.13;;
7737;SDS011;29398;45.328;5.558;2022-12-18T06:14:06;68.25;;;43.30;;
7737;SDS011;29398;45.328;5.558;2022-12-18T06:15:10;58.60;;;41.22;;
7737;SDS011;29398;45.328;5.558;2022-12-18T06:16:11;59.22;;;40.50;;
7737;SDS011;29398;45.328;5.558;2022-12-18T06:17:14;64.82;;;43.08;;
7737;SDS011;29398;45.328;5.558;2022-12-18T06:18:16;65.68;;;43.33;;
7737;SDS011;29398;45.328;5.558;2022-12-18T06:19:18;65.03;;;42.72;;
7737;SDS011;29398;45.328;5.558;2022-12-18T06:20:20;64.20;;;42.35;;
7737;SDS011;29398;45.328;5.558;2022-12-18T06:21:21;67.07;;;43.13;;
7737;SDS011;29398;45.328;5.558;2022-12-18T06:22:23;59.80;;;40.13;;
7737;SDS011;29398;45.328;5.558;2022-12-18T06:23:25;64.15;;;42.17;;
7737;SDS011;29398;45.328;5.558;2022-12-18T06:24:27;65.90;;;43.65;;